createdAt,value
2023-01-12T00:00:34.126Z,7.10
2023-01-12T00:03:23.897Z,7.10
2023-01-12T00:06:00.916Z,7.10
2023-01-12T00:08:36.712Z,7.10
2023-01-12T00:11:09.265Z,7.10
2023-01-12T00:13:42.008Z,7.10
2023-01-12T00:16:35.752Z,7.10
2023-01-12T00:19:24.690Z,7.10
2023-01-12T00:22:00.268Z,7.10
2023-01-12T00:24:44.109Z,7.20
2023-01-12T00:27:21.254Z,7.20
2023-01-12T00:29:54.024Z,7.20
2023-01-12T00:32:26.484Z,7.20
2023-01-12T00:34:59.507Z,7.20
2023-01-12T00:37:31.973Z,7.20
2023-01-12T00:40:05.165Z,7.20
2023-01-12T00:42:56.061Z,7.20
2023-01-12T00:45:30.228Z,7.20
2023-01-12T00:48:02.698Z,7.20
2023-01-12T00:50:35.439Z,7.20
2023-01-12T00:53:08.000Z,7.20
2023-01-12T00:55:40.882Z,7.20
2023-01-12T00:58:13.427Z,7.20
2023-01-12T01:00:46.231Z,7.20
2023-01-12T01:03:18.748Z,7.20
2023-01-12T01:05:51.498Z,7.30
2023-01-12T01:08:24.013Z,7.20
2023-01-12T01:11:23.225Z,7.30
2023-01-12T01:13:55.709Z,7.20
2023-01-12T01:16:29.626Z,7.30
2023-01-12T01:19:04.729Z,7.30
2023-01-12T01:21:37.469Z,7.30
2023-01-12T01:24:11.903Z,7.30
2023-01-12T01:26:44.773Z,7.30
2023-01-12T01:29:17.598Z,7.30
2023-01-12T01:31:50.356Z,7.30
2023-01-12T01:34:24.030Z,7.30
2023-01-12T01:36:56.838Z,7.40
2023-01-12T01:39:29.312Z,7.30
2023-01-12T01:42:02.137Z,7.40
2023-01-12T01:44:34.606Z,7.30
2023-01-12T01:47:14.466Z,7.40
2023-01-12T01:49:53.174Z,7.40
2023-01-12T01:52:41.369Z,7.40
2023-01-12T01:55:22.062Z,7.40
2023-01-12T01:57:57.574Z,7.40
2023-01-12T02:00:30.381Z,7.50
2023-01-12T02:03:05.245Z,7.40
2023-01-12T02:05:42.547Z,7.40
2023-01-12T02:08:42.207Z,7.50
2023-01-12T02:11:34.568Z,7.50
2023-01-12T02:14:27.278Z,7.50
2023-01-12T02:17:05.586Z,7.60
2023-01-12T02:19:50.225Z,7.60
2023-01-12T02:22:28.215Z,7.60
2023-01-12T02:25:26.852Z,7.60
2023-01-12T02:28:34.151Z,7.60
2023-01-12T02:31:15.737Z,7.60
2023-01-12T02:34:04.841Z,7.60
2023-01-12T02:36:58.682Z,7.50
2023-01-12T02:39:43.666Z,7.50
2023-01-12T02:42:43.979Z,7.50
2023-01-12T02:45:53.140Z,7.40
2023-01-12T02:48:57.604Z,7.30
2023-01-12T02:51:40.443Z,7.20
2023-01-12T02:54:17.620Z,7.10
2023-01-12T02:56:53.088Z,7.10
2023-01-12T02:59:33.099Z,7.00
2023-01-12T03:02:13.908Z,7.00
2023-01-12T03:04:46.912Z,6.90
2023-01-12T03:07:34.279Z,6.80
2023-01-12T03:10:15.875Z,6.80
2023-01-12T03:12:51.509Z,6.70
2023-01-12T03:15:27.478Z,6.70
2023-01-12T03:18:06.003Z,6.70
2023-01-12T03:20:43.656Z,6.70
2023-01-12T03:23:27.719Z,6.60
2023-01-12T03:26:03.074Z,6.60
2023-01-12T03:28:41.127Z,6.70
2023-01-12T03:31:14.295Z,6.60
2023-01-12T03:33:46.932Z,6.50
2023-01-12T03:36:57.251Z,6.50
2023-01-12T03:39:48.155Z,6.40
2023-01-12T03:42:36.017Z,6.40
2023-01-12T03:45:21.452Z,6.40
2023-01-12T03:48:03.793Z,6.40
2023-01-12T03:50:49.626Z,6.40
2023-01-12T03:53:24.426Z,6.30
2023-01-12T03:56:02.345Z,6.40
2023-01-12T03:58:35.643Z,6.30
2023-01-12T04:01:08.207Z,6.40
2023-01-12T04:03:41.169Z,6.40
2023-01-12T04:06:13.696Z,6.60
2023-01-12T04:08:46.732Z,6.60
2023-01-12T04:11:37.985Z,6.80
2023-01-12T04:14:10.796Z,6.90
2023-01-12T04:16:43.255Z,6.90
2023-01-12T04:19:16.046Z,7.00
2023-01-12T04:22:06.895Z,7.10
2023-01-12T04:24:39.707Z,7.10
2023-01-12T04:27:12.363Z,7.20
2023-01-12T04:29:45.475Z,7.20
2023-01-12T04:32:18.017Z,7.30
2023-01-12T04:34:51.090Z,7.30
2023-01-12T04:37:23.629Z,7.30
2023-01-12T04:39:56.413Z,7.40
2023-01-12T04:42:47.510Z,7.40
2023-01-12T04:45:20.309Z,7.40
2023-01-12T04:47:52.827Z,7.40
2023-01-12T04:50:25.611Z,7.50
2023-01-12T04:52:58.766Z,7.50
2023-01-12T04:55:31.721Z,7.50
2023-01-12T04:58:04.521Z,7.40
2023-01-12T05:00:37.355Z,7.40
2023-01-12T05:03:13.641Z,7.40
2023-01-12T05:05:46.457Z,7.40
2023-01-12T05:08:37.773Z,7.40
2023-01-12T05:11:10.813Z,7.40
2023-01-12T05:13:43.531Z,7.40
2023-01-12T05:16:18.695Z,7.40
2023-01-12T05:18:53.422Z,7.40
2023-01-12T05:21:26.273Z,7.40
2023-01-12T05:23:58.801Z,7.40
2023-01-12T05:26:31.561Z,7.40
2023-01-12T05:29:04.023Z,7.40
2023-01-12T05:31:36.803Z,7.30
2023-01-12T05:34:09.329Z,7.30
2023-01-12T05:36:42.103Z,7.20
2023-01-12T05:39:14.641Z,7.10
2023-01-12T05:42:06.074Z,7.00
2023-01-12T05:44:38.577Z,7.00
2023-01-12T05:47:11.394Z,7.00
2023-01-12T05:49:43.866Z,7.10
2023-01-12T05:52:16.653Z,7.10
2023-01-12T05:54:49.194Z,7.10
2023-01-12T05:57:21.978Z,7.10
2023-01-12T05:59:54.473Z,7.10
2023-01-12T06:02:28.765Z,7.10
2023-01-12T06:05:01.386Z,7.00
2023-01-12T06:07:34.492Z,6.90
2023-01-12T06:10:07.635Z,6.80
2023-01-12T06:12:58.823Z,6.80
2023-01-12T06:15:32.850Z,6.70
2023-01-12T06:18:06.038Z,6.50
2023-01-12T06:20:38.494Z,6.40
2023-01-12T06:23:11.285Z,6.30
2023-01-12T06:25:43.766Z,6.20
2023-01-12T06:28:17.599Z,6.10
2023-01-12T06:31:01.584Z,6.00
2023-01-12T06:33:34.727Z,5.90
2023-01-12T06:36:07.997Z,5.70
2023-01-12T06:38:41.848Z,5.70
2023-01-12T06:41:32.693Z,5.60
2023-01-12T06:44:05.572Z,5.50
2023-01-12T06:46:38.104Z,5.40
2023-01-12T06:49:11.115Z,5.30
2023-01-12T06:51:44.427Z,5.30
2023-01-12T06:54:18.691Z,5.30
2023-01-12T06:56:51.414Z,5.20
2023-01-12T06:59:24.257Z,5.20
2023-01-12T07:01:56.782Z,5.10
2023-01-12T07:04:29.670Z,5.10
2023-01-12T07:07:02.205Z,5.10
2023-01-12T07:09:35.979Z,5.10
2023-01-12T07:12:08.558Z,5.10
2023-01-12T07:14:41.340Z,5.20
2023-01-12T07:17:13.865Z,5.20
2023-01-12T07:19:46.959Z,5.20
2023-01-12T07:22:19.415Z,5.20
2023-01-12T07:24:52.405Z,5.30
2023-01-12T07:27:25.041Z,5.40
2023-01-12T07:29:57.839Z,5.40
2023-01-12T07:32:30.443Z,5.50
2023-01-12T07:35:03.255Z,5.50
2023-01-12T07:37:35.932Z,5.60
2023-01-12T07:40:09.663Z,5.60
2023-01-12T07:42:42.279Z,5.50
2023-01-12T07:45:15.075Z,5.60
2023-01-12T07:47:53.702Z,5.50
2023-01-12T07:50:28.010Z,5.60
2023-01-12T07:53:02.106Z,5.60
2023-01-12T07:55:35.265Z,5.60
2023-01-12T07:58:08.892Z,5.70
2023-01-12T08:00:41.959Z,5.80
2023-01-12T08:03:15.004Z,5.80
2023-01-12T08:05:48.049Z,5.80
2023-01-12T08:08:20.793Z,5.90
2023-01-12T08:10:53.715Z,6.00
2023-01-12T08:13:26.241Z,6.10
2023-01-12T08:16:06.324Z,6.10
2023-01-12T08:18:54.445Z,6.10
2023-01-12T08:21:32.212Z,6.20
2023-01-12T08:24:09.472Z,6.20
2023-01-12T08:26:46.753Z,6.30
2023-01-12T08:29:32.138Z,6.30
2023-01-12T08:34:46.903Z,6.60
2023-01-12T08:37:22.257Z,6.80
2023-01-12T08:39:55.235Z,6.80
2023-01-12T08:42:30.826Z,6.90
2023-01-12T08:45:07.138Z,6.90
2023-01-12T08:47:42.374Z,7.00
2023-01-12T08:50:33.642Z,7.10
2023-01-12T08:53:07.881Z,7.20
2023-01-12T08:55:40.365Z,7.40
2023-01-12T08:58:27.723Z,7.50
2023-01-12T09:01:14.903Z,7.50
2023-01-12T09:03:48.711Z,7.50
2023-01-12T09:06:24.027Z,7.50
2023-01-12T09:08:58.892Z,7.50
2023-01-12T09:11:32.890Z,7.70
2023-01-12T09:14:06.205Z,8.00
2023-01-12T09:16:39.862Z,8.20
2023-01-12T09:19:12.637Z,8.50
2023-01-12T09:21:47.875Z,8.80
2023-01-12T09:24:20.497Z,8.90
2023-01-12T09:26:53.548Z,9.00
2023-01-12T09:29:28.403Z,9.00
2023-01-12T09:32:01.490Z,9.00
2023-01-12T09:34:34.111Z,8.90
2023-01-12T09:37:06.900Z,8.80
2023-01-12T09:39:42.677Z,8.80
2023-01-12T09:42:38.333Z,8.70
2023-01-12T09:45:40.935Z,8.60
2023-01-12T09:48:14.326Z,8.60
2023-01-12T09:51:08.172Z,8.50
2023-01-12T09:53:42.100Z,8.50
2023-01-12T09:56:36.553Z,8.50
2023-01-12T09:59:30.499Z,8.60
2023-01-12T10:02:03.263Z,8.70
2023-01-12T10:04:37.811Z,8.80
2023-01-12T10:07:16.880Z,8.80
2023-01-12T10:09:49.693Z,8.90
2023-01-12T10:12:35.016Z,8.90
2023-01-12T10:15:19.930Z,9.00
2023-01-12T10:17:54.618Z,9.10
2023-01-12T10:20:47.870Z,9.20
2023-01-12T10:23:24.757Z,9.20
2023-01-12T10:26:02.330Z,9.20
2023-01-12T10:28:37.739Z,9.10
2023-01-12T10:31:18.478Z,9.00
2023-01-12T10:34:11.989Z,8.90
2023-01-12T10:36:50.055Z,8.90
2023-01-12T10:39:35.777Z,8.90
2023-01-12T10:42:41.829Z,8.80
2023-01-12T10:45:24.820Z,8.70
2023-01-12T10:47:57.891Z,8.70
2023-01-12T10:50:33.932Z,8.80
2023-01-12T10:53:13.867Z,8.90
2023-01-12T10:55:47.565Z,9.20
2023-01-12T10:58:25.876Z,9.40
2023-01-12T11:00:59.097Z,9.60
2023-01-12T11:03:32.303Z,9.90
2023-01-12T11:06:32.947Z,10.10
2023-01-12T11:09:22.949Z,10.30
2023-01-12T11:12:04.142Z,10.30
2023-01-12T11:14:38.208Z,10.40
2023-01-12T11:17:32.458Z,10.40
2023-01-12T11:20:16.224Z,10.40
2023-01-12T11:22:53.127Z,10.40
2023-01-12T11:25:29.077Z,10.40
2023-01-12T11:28:23.838Z,10.30
2023-01-12T11:31:14.072Z,10.30
2023-01-12T11:34:25.175Z,10.30
2023-01-12T11:37:13.720Z,10.10
2023-01-12T11:39:52.102Z,10.20
2023-01-12T11:42:46.924Z,10.20
2023-01-12T11:45:46.505Z,10.30
2023-01-12T11:48:30.653Z,10.40
2023-01-12T11:51:03.353Z,10.40
2023-01-12T11:53:36.222Z,10.30
2023-01-12T11:56:26.094Z,10.40
2023-01-12T11:59:24.480Z,10.30
2023-01-12T12:02:21.727Z,10.30
2023-01-12T12:05:29.517Z,10.30
2023-01-12T12:08:23.249Z,10.30
2023-01-12T12:11:18.286Z,10.30
2023-01-12T12:14:01.297Z,10.20
2023-01-12T12:16:49.141Z,10.20
2023-01-12T12:19:40.226Z,10.30
2023-01-12T12:22:50.777Z,10.30
2023-01-12T12:25:59.891Z,10.40
2023-01-12T12:28:48.445Z,10.50
2023-01-12T12:31:33.016Z,10.50
2023-01-12T12:34:37.253Z,10.60
2023-01-12T12:37:21.458Z,10.40
2023-01-12T12:40:10.087Z,10.40
2023-01-12T12:43:10.267Z,10.30
2023-01-12T12:45:57.323Z,10.30
2023-01-12T12:48:41.745Z,10.20
2023-01-12T12:51:14.965Z,10.20
2023-01-12T12:53:52.354Z,10.10
2023-01-12T12:56:26.300Z,10.10
2023-01-12T12:59:01.630Z,10.10
2023-01-12T13:01:34.511Z,10.10
2023-01-12T13:04:08.749Z,10.00
2023-01-12T13:06:44.665Z,10.00
2023-01-12T13:09:17.086Z,9.90
2023-01-12T13:11:54.263Z,9.80
2023-01-12T13:14:26.868Z,9.80
2023-01-12T13:17:19.182Z,9.70
2023-01-12T13:20:02.171Z,9.70
2023-01-12T13:22:41.903Z,9.70
2023-01-12T13:25:17.294Z,9.70
2023-01-12T13:28:01.467Z,9.70
2023-01-12T13:30:35.017Z,9.60
2023-01-12T13:33:24.529Z,9.60
2023-01-12T13:36:03.533Z,9.60
2023-01-12T13:39:03.634Z,9.60
2023-01-12T13:41:56.278Z,9.50
2023-01-12T13:44:34.877Z,9.50
2023-01-12T13:47:25.988Z,9.40
2023-01-12T13:50:03.119Z,9.30
2023-01-12T13:52:37.185Z,9.20
2023-01-12T13:55:37.150Z,9.20
2023-01-12T13:58:17.475Z,9.10
2023-01-12T14:00:59.177Z,9.10
2023-01-12T14:03:56.411Z,9.00
2023-01-12T14:06:41.294Z,8.90
2023-01-12T14:09:22.983Z,8.90
2023-01-12T14:11:55.700Z,8.90
2023-01-12T14:15:08.124Z,8.80
2023-01-12T14:17:50.276Z,8.80
2023-01-12T14:20:27.332Z,8.80
2023-01-12T14:23:21.295Z,8.70
2023-01-12T14:26:10.064Z,8.70
2023-01-12T14:28:48.041Z,8.70
2023-01-12T14:31:29.659Z,8.60
2023-01-12T14:34:04.654Z,8.60
2023-01-12T14:36:45.355Z,8.60
2023-01-12T14:39:24.450Z,8.50
2023-01-12T14:42:16.439Z,8.50
2023-01-12T14:45:14.314Z,8.50
2023-01-12T14:47:46.827Z,8.40
2023-01-12T14:50:21.973Z,8.40
2023-01-12T14:52:54.476Z,8.30
2023-01-12T14:55:39.318Z,8.20
2023-01-12T14:58:20.784Z,8.20
2023-01-12T15:00:53.736Z,8.20
2023-01-12T15:03:35.316Z,8.00
2023-01-12T15:06:15.792Z,8.00
2023-01-12T15:09:01.042Z,7.90
2023-01-12T15:11:38.017Z,7.80
2023-01-12T15:14:26.349Z,7.80
2023-01-12T15:17:18.951Z,7.70
2023-01-12T15:20:24.023Z,7.70
2023-01-12T15:23:15.302Z,7.70
2023-01-12T15:25:51.147Z,7.60
2023-01-12T15:28:37.228Z,7.50
2023-01-12T15:32:34.817Z,7.50
2023-01-12T15:35:32.302Z,7.40
2023-01-12T15:38:22.812Z,7.40
2023-01-12T15:41:04.137Z,7.40
2023-01-12T15:43:41.827Z,7.30
2023-01-12T15:46:20.167Z,7.20
2023-01-12T15:48:52.727Z,7.20
2023-01-12T15:51:25.555Z,7.10
2023-01-12T15:53:58.379Z,7.10
2023-01-12T15:56:35.093Z,7.10
2023-01-12T15:59:12.469Z,7.10
2023-01-12T16:04:52.292Z,6.90
2023-01-12T16:07:35.127Z,7.00
2023-01-12T16:10:11.981Z,6.90
2023-01-12T16:12:45.891Z,6.90
2023-01-12T16:15:21.407Z,6.80
2023-01-12T16:17:54.192Z,6.80
2023-01-12T16:20:26.658Z,6.90
2023-01-12T16:22:59.409Z,6.80
2023-01-12T16:25:31.966Z,6.70
2023-01-12T16:28:05.108Z,6.80
2023-01-12T16:30:45.606Z,6.80
2023-01-12T16:33:19.247Z,6.70
2023-01-12T16:35:55.610Z,6.80
2023-01-12T16:38:28.863Z,6.80
2023-01-12T16:41:09.554Z,6.80
2023-01-12T16:43:42.371Z,6.90
2023-01-12T16:46:15.856Z,6.90
2023-01-12T16:48:48.690Z,7.00
2023-01-12T16:51:21.238Z,7.10
2023-01-12T16:53:59.493Z,7.20
2023-01-12T16:56:52.981Z,7.30
2023-01-12T17:00:00.850Z,7.40
2023-01-12T17:02:42.901Z,7.50
2023-01-12T17:05:23.377Z,7.50
2023-01-12T17:08:42.471Z,7.60
2023-01-12T17:11:14.923Z,7.60
2023-01-12T17:13:58.304Z,7.60
2023-01-12T17:16:31.183Z,7.60
2023-01-12T17:19:03.884Z,7.70
2023-01-12T17:21:36.727Z,7.70
2023-01-12T17:24:11.994Z,7.70
2023-01-12T17:26:46.210Z,7.80
2023-01-12T17:29:19.104Z,7.80
2023-01-12T17:31:53.829Z,7.90
2023-01-12T17:34:29.702Z,8.00
2023-01-12T17:37:04.226Z,8.00
2023-01-12T17:39:39.851Z,8.10
2023-01-12T17:42:33.393Z,8.10
2023-01-12T17:45:06.474Z,8.20
2023-01-12T17:47:39.558Z,8.20
2023-01-12T17:50:13.508Z,8.20
2023-01-12T17:52:46.562Z,8.30
2023-01-12T17:55:19.177Z,8.30
2023-01-12T17:57:54.566Z,8.30
2023-01-12T18:00:27.204Z,8.30
2023-01-12T18:03:00.354Z,8.30
2023-01-12T18:05:32.932Z,8.30
2023-01-12T18:08:08.175Z,8.40
2023-01-12T18:10:40.789Z,8.40
2023-01-12T18:13:13.782Z,8.50
2023-01-12T18:15:46.368Z,8.40
2023-01-12T18:18:19.390Z,8.50
2023-01-12T18:20:52.671Z,8.50
2023-01-12T18:23:25.422Z,8.50
2023-01-12T18:26:02.937Z,8.50
2023-01-12T18:28:35.768Z,8.50
2023-01-12T18:31:14.197Z,8.50
2023-01-12T18:33:53.559Z,8.50
2023-01-12T18:36:26.128Z,8.50
2023-01-12T18:38:59.143Z,8.50
2023-01-12T18:41:50.264Z,8.50
2023-01-12T18:44:24.389Z,8.50
2023-01-12T18:47:16.949Z,8.50
2023-01-12T18:49:50.042Z,8.50
2023-01-12T18:52:41.243Z,8.40
2023-01-12T18:55:14.022Z,8.40
2023-01-12T18:57:46.502Z,8.40
2023-01-12T19:00:19.621Z,8.50
2023-01-12T19:02:52.164Z,8.50
2023-01-12T19:05:46.541Z,8.50
2023-01-12T19:08:37.588Z,8.60
2023-01-12T19:11:12.177Z,8.60
2023-01-12T19:14:03.324Z,8.60
2023-01-12T19:16:54.503Z,8.60
2023-01-12T19:19:28.716Z,8.60
2023-01-12T19:22:21.348Z,8.60
2023-01-12T19:25:12.398Z,8.60
2023-01-12T19:28:03.625Z,8.60
2023-01-12T19:30:39.003Z,8.60
2023-01-12T19:33:14.568Z,8.60
2023-01-12T19:35:47.377Z,8.70
2023-01-12T19:38:20.508Z,8.70
2023-01-12T19:40:54.581Z,8.70
2023-01-12T19:43:29.637Z,8.70
2023-01-12T19:46:02.763Z,8.70
2023-01-12T19:48:35.631Z,8.70
2023-01-12T19:51:11.024Z,8.70
2023-01-12T19:53:44.104Z,8.70
2023-01-12T19:56:16.550Z,8.70
2023-01-12T19:58:50.740Z,8.80
2023-01-12T20:01:24.067Z,8.80
2023-01-12T20:03:58.766Z,8.80
2023-01-12T20:06:31.316Z,8.80
2023-01-12T20:09:04.260Z,8.80
2023-01-12T20:11:36.779Z,8.90
2023-01-12T20:14:09.724Z,8.80
2023-01-12T20:16:42.218Z,8.90
2023-01-12T20:19:15.090Z,8.90
2023-01-12T20:21:48.198Z,8.90
2023-01-12T20:24:20.961Z,8.90
2023-01-12T20:26:53.449Z,8.90
2023-01-12T20:29:26.459Z,8.90
2023-01-12T20:32:01.201Z,8.90
2023-01-12T20:34:34.552Z,8.90
2023-01-12T20:37:07.109Z,8.90
2023-01-12T20:39:40.227Z,9.00
2023-01-12T20:42:12.765Z,9.00
2023-01-12T20:44:45.541Z,9.00
2023-01-12T20:47:19.349Z,8.90
2023-01-12T20:49:52.124Z,8.90
2023-01-12T20:52:25.909Z,8.90
2023-01-12T20:54:58.721Z,9.00
2023-01-12T20:57:34.989Z,8.90
2023-01-12T21:00:11.397Z,8.90
2023-01-12T21:02:44.051Z,8.90
2023-01-12T21:05:17.229Z,9.00
2023-01-12T21:07:51.977Z,8.90
2023-01-12T21:10:26.998Z,8.90
2023-01-12T21:12:59.533Z,9.00
2023-01-12T21:15:32.332Z,9.00
2023-01-12T21:18:04.866Z,9.00
2023-01-12T21:20:42.707Z,9.00
2023-01-12T21:23:15.187Z,9.00
2023-01-12T21:25:48.143Z,9.00
2023-01-12T21:28:20.633Z,8.90
2023-01-12T21:30:53.660Z,8.90
2023-01-12T21:33:26.449Z,8.90
2023-01-12T21:35:59.788Z,8.80
2023-01-12T21:38:32.796Z,8.80
2023-01-12T21:41:06.449Z,8.80
2023-01-12T21:43:39.093Z,8.80
2023-01-12T21:46:11.986Z,8.80
2023-01-12T21:48:45.048Z,8.80
2023-01-12T21:51:18.119Z,8.80
2023-01-12T21:53:50.618Z,8.80
2023-01-12T21:56:23.404Z,8.90
2023-01-12T21:58:55.883Z,8.90
2023-01-12T22:01:28.858Z,8.90
2023-01-12T22:04:02.530Z,8.90
2023-01-12T22:06:35.417Z,8.90
2023-01-12T22:09:07.911Z,8.90
2023-01-12T22:11:40.638Z,9.00
2023-01-12T22:14:13.117Z,9.10
2023-01-12T22:16:46.023Z,9.10
2023-01-12T22:19:18.486Z,9.10
2023-01-12T22:21:51.241Z,9.10
2023-01-12T22:24:23.786Z,9.10
2023-01-12T22:26:56.646Z,9.20
2023-01-12T22:29:29.630Z,9.20
2023-01-12T22:32:02.489Z,9.20
2023-01-12T22:34:35.003Z,9.20
2023-01-12T22:37:07.941Z,9.10
2023-01-12T22:39:40.426Z,9.10
2023-01-12T22:42:13.192Z,9.10
2023-01-12T22:44:45.743Z,9.10
2023-01-12T22:47:18.581Z,9.10
2023-01-12T22:49:51.061Z,9.10
2023-01-12T22:52:23.843Z,9.10
2023-01-12T22:54:56.339Z,9.10
2023-01-12T22:57:29.148Z,9.00
2023-01-12T23:00:01.634Z,9.00
2023-01-12T23:02:53.118Z,8.90
2023-01-12T23:05:26.617Z,8.90
2023-01-12T23:08:00.182Z,8.90
2023-01-12T23:10:33.576Z,8.90
2023-01-12T23:13:17.182Z,8.90
2023-01-12T23:15:56.645Z,8.80
2023-01-12T23:18:31.684Z,8.80
2023-01-12T23:21:15.592Z,8.80
2023-01-12T23:23:57.177Z,8.80
2023-01-12T23:26:32.681Z,8.80
2023-01-12T23:29:05.561Z,8.80
2023-01-12T23:31:38.096Z,8.80
2023-01-12T23:34:12.117Z,8.80
2023-01-12T23:36:44.703Z,8.80
2023-01-12T23:39:17.541Z,8.80
2023-01-12T23:41:50.079Z,8.90
2023-01-12T23:44:22.882Z,8.80
2023-01-12T23:46:56.281Z,8.80
2023-01-12T23:49:29.121Z,8.90
2023-01-12T23:52:01.634Z,8.90
2023-01-12T23:54:34.639Z,8.90
2023-01-12T23:57:07.168Z,8.90
2023-01-12T23:59:39.972Z,8.90
